sensor_id;sensor_type;location;lat;lon;timestamp;P1;durP1;ratioP1;P2;durP2;ratioP2
30010;SDS011;16851;53.564;8.112;2022-09-02T00:01:21;3.25;;;0.90;;
30010;SDS011;16851;53.564;8.112;2022-09-02T00:06:31;3.25;;;0.70;;
30010;SDS011;16851;53.564;8.112;2022-09-02T00:11:34;0.77;;;0.65;;
30010;SDS011;16851;53.564;8.112;2022-09-02T00:16:41;2.63;;;0.88;;
30010;SDS011;16851;53.564;8.112;2022-09-02T00:21:52;2.90;;;0.70;;
30010;SDS011;16851;53.564;8.112;2022-09-02T00:26:55;2.70;;;0.85;;
30010;SDS011;16851;53.564;8.112;2022-09-02T00:31:57;3.80;;;0.80;;
30010;SDS011;16851;53.564;8.112;2022-09-02T00:37:05;4.13;;;0.88;;
30010;SDS011;16851;53.564;8.112;2022-09-02T00:42:09;3.83;;;0.90;;
30010;SDS011;16851;53.564;8.112;2022-09-02T00:47:11;3.17;;;1.00;;
30010;SDS011;16851;53.564;8.112;2022-09-02T00:52:19;1.67;;;0.95;;
30010;SDS011;16851;53.564;8.112;2022-09-02T00:57:28;3.22;;;0.90;;
30010;SDS011;16851;53.564;8.112;2022-09-02T01:02:33;1.95;;;0.80;;
30010;SDS011;16851;53.564;8.112;2022-09-02T01:07:54;2.38;;;0.88;;
30010;SDS011;16851;53.564;8.112;2022-09-02T01:13:04;3.78;;;1.02;;
30010;SDS011;16851;53.564;8.112;2022-09-02T01:18:19;2.63;;;1.08;;
30010;SDS011;16851;53.564;8.112;2022-09-02T01:23:29;1.77;;;0.95;;
30010;SDS011;16851;53.564;8.112;2022-09-02T01:28:35;1.98;;;1.00;;
30010;SDS011;16851;53.564;8.112;2022-09-02T01:33:37;1.65;;;1.13;;
30010;SDS011;16851;53.564;8.112;2022-09-02T01:38:39;1.70;;;1.10;;
30010;SDS011;16851;53.564;8.112;2022-09-02T01:43:44;3.80;;;1.20;;
30010;SDS011;16851;53.564;8.112;2022-09-02T01:48:47;2.63;;;0.93;;
30010;SDS011;16851;53.564;8.112;2022-09-02T01:53:49;1.50;;;1.10;;
30010;SDS011;16851;53.564;8.112;2022-09-02T01:58:51;3.10;;;0.90;;
30010;SDS011;16851;53.564;8.112;2022-09-02T02:03:53;3.13;;;1.08;;
30010;SDS011;16851;53.564;8.112;2022-09-02T02:08:58;1.98;;;0.90;;
30010;SDS011;16851;53.564;8.112;2022-09-02T02:14:04;2.25;;;1.20;;
30010;SDS011;16851;53.564;8.112;2022-09-02T02:19:11;1.58;;;1.00;;
30010;SDS011;16851;53.564;8.112;2022-09-02T02:24:13;4.35;;;0.90;;
30010;SDS011;16851;53.564;8.112;2022-09-02T02:29:16;1.80;;;0.85;;
30010;SDS011;16851;53.564;8.112;2022-09-02T02:34:18;5.05;;;1.15;;
30010;SDS011;16851;53.564;8.112;2022-09-02T02:39:28;1.88;;;0.82;;
30010;SDS011;16851;53.564;8.112;2022-09-02T02:44:33;1.02;;;0.80;;
30010;SDS011;16851;53.564;8.112;2022-09-02T02:49:36;4.40;;;0.75;;
30010;SDS011;16851;53.564;8.112;2022-09-02T02:54:44;1.48;;;0.98;;
30010;SDS011;16851;53.564;8.112;2022-09-02T02:59:47;4.13;;;1.10;;
30010;SDS011;16851;53.564;8.112;2022-09-02T03:04:49;3.53;;;1.30;;
30010;SDS011;16851;53.564;8.112;2022-09-02T03:09:52;1.30;;;0.88;;
30010;SDS011;16851;53.564;8.112;2022-09-02T03:14:54;2.60;;;1.13;;
30010;SDS011;16851;53.564;8.112;2022-09-02T03:19:58;2.30;;;1.10;;
30010;SDS011;16851;53.564;8.112;2022-09-02T03:25:07;2.13;;;1.15;;
30010;SDS011;16851;53.564;8.112;2022-09-02T03:30:12;2.35;;;1.20;;
30010;SDS011;16851;53.564;8.112;2022-09-02T03:35:21;2.75;;;1.15;;
30010;SDS011;16851;53.564;8.112;2022-09-02T03:40:26;1.90;;;0.90;;
30010;SDS011;16851;53.564;8.112;2022-09-02T03:45:31;2.30;;;1.10;;
30010;SDS011;16851;53.564;8.112;2022-09-02T03:50:39;2.63;;;1.30;;
30010;SDS011;16851;53.564;8.112;2022-09-02T03:55:48;1.83;;;1.00;;
30010;SDS011;16851;53.564;8.112;2022-09-02T04:00:54;6.13;;;1.50;;
30010;SDS011;16851;53.564;8.112;2022-09-02T04:05:58;4.20;;;1.20;;
30010;SDS011;16851;53.564;8.112;2022-09-02T04:11:07;7.00;;;1.30;;
30010;SDS011;16851;53.564;8.112;2022-09-02T04:16:15;2.38;;;1.30;;
30010;SDS011;16851;53.564;8.112;2022-09-02T04:21:18;1.88;;;1.00;;
30010;SDS011;16851;53.564;8.112;2022-09-02T04:26:20;2.95;;;1.13;;
30010;SDS011;16851;53.564;8.112;2022-09-02T04:31:27;1.75;;;1.40;;
30010;SDS011;16851;53.564;8.112;2022-09-02T04:36:33;2.95;;;1.40;;
30010;SDS011;16851;53.564;8.112;2022-09-02T04:41:39;2.53;;;1.40;;
30010;SDS011;16851;53.564;8.112;2022-09-02T04:46:46;4.18;;;1.67;;
30010;SDS011;16851;53.564;8.112;2022-09-02T04:51:55;2.22;;;1.33;;
30010;SDS011;16851;53.564;8.112;2022-09-02T04:56:58;3.85;;;1.27;;
30010;SDS011;16851;53.564;8.112;2022-09-02T05:02:03;2.05;;;1.30;;
30010;SDS011;16851;53.564;8.112;2022-09-02T05:07:10;2.80;;;1.40;;
30010;SDS011;16851;53.564;8.112;2022-09-02T05:12:17;3.30;;;1.70;;
30010;SDS011;16851;53.564;8.112;2022-09-02T05:17:27;5.25;;;1.50;;
30010;SDS011;16851;53.564;8.112;2022-09-02T05:22:35;2.10;;;1.42;;
30010;SDS011;16851;53.564;8.112;2022-09-02T05:27:41;1.80;;;1.13;;
30010;SDS011;16851;53.564;8.112;2022-09-02T05:32:45;3.72;;;1.38;;
30010;SDS011;16851;53.564;8.112;2022-09-02T05:37:48;3.58;;;1.35;;
30010;SDS011;16851;53.564;8.112;2022-09-02T05:42:53;2.65;;;1.38;;
30010;SDS011;16851;53.564;8.112;2022-09-02T05:47:55;3.10;;;1.83;;
30010;SDS011;16851;53.564;8.112;2022-09-02T05:53:00;3.10;;;1.60;;
30010;SDS011;16851;53.564;8.112;2022-09-02T05:58:08;4.55;;;1.50;;
30010;SDS011;16851;53.564;8.112;2022-09-02T06:03:11;3.03;;;1.50;;
30010;SDS011;16851;53.564;8.112;2022-09-02T06:08:19;3.95;;;1.50;;
30010;SDS011;16851;53.564;8.112;2022-09-02T06:13:21;2.95;;;1.30;;
30010;SDS011;16851;53.564;8.112;2022-09-02T06:18:27;2.92;;;1.60;;
30010;SDS011;16851;53.564;8.112;2022-09-02T06:23:32;4.25;;;2.03;;
30010;SDS011;16851;53.564;8.112;2022-09-02T06:28:38;3.42;;;1.63;;
30010;SDS011;16851;53.564;8.112;2022-09-02T06:33:44;9.88;;;2.47;;
30010;SDS011;16851;53.564;8.112;2022-09-02T06:38:50;5.45;;;1.80;;
30010;SDS011;16851;53.564;8.112;2022-09-02T06:43:57;3.30;;;1.42;;
30010;SDS011;16851;53.564;8.112;2022-09-02T06:49:06;4.53;;;1.70;;
30010;SDS011;16851;53.564;8.112;2022-09-02T06:54:12;4.10;;;1.60;;
30010;SDS011;16851;53.564;8.112;2022-09-02T06:59:22;3.70;;;1.80;;
30010;SDS011;16851;53.564;8.112;2022-09-02T07:04:33;2.78;;;1.85;;
30010;SDS011;16851;53.564;8.112;2022-09-02T07:10:02;2.90;;;1.60;;
30010;SDS011;16851;53.564;8.112;2022-09-02T07:15:08;5.78;;;1.80;;
30010;SDS011;16851;53.564;8.112;2022-09-02T07:20:16;2.72;;;1.42;;
30010;SDS011;16851;53.564;8.112;2022-09-02T07:25:26;3.85;;;1.65;;
30010;SDS011;16851;53.564;8.112;2022-09-02T07:30:28;3.55;;;1.40;;
30010;SDS011;16851;53.564;8.112;2022-09-02T07:35:42;3.45;;;1.60;;
30010;SDS011;16851;53.564;8.112;2022-09-02T07:40:45;2.45;;;1.55;;
30010;SDS011;16851;53.564;8.112;2022-09-02T07:45:59;2.55;;;1.55;;
30010;SDS011;16851;53.564;8.112;2022-09-02T07:51:05;4.05;;;1.73;;
30010;SDS011;16851;53.564;8.112;2022-09-02T07:56:13;5.03;;;1.70;;
30010;SDS011;16851;53.564;8.112;2022-09-02T08:01:16;1.67;;;1.38;;
30010;SDS011;16851;53.564;8.112;2022-09-02T08:06:27;4.75;;;1.42;;
30010;SDS011;16851;53.564;8.112;2022-09-02T08:11:35;3.08;;;1.50;;
30010;SDS011;16851;53.564;8.112;2022-09-02T08:16:43;7.20;;;1.30;;
30010;SDS011;16851;53.564;8.112;2022-09-02T08:21:49;4.30;;;1.70;;
30010;SDS011;16851;53.564;8.112;2022-09-02T08:26:51;5.85;;;1.65;;
30010;SDS011;16851;53.564;8.112;2022-09-02T08:31:53;3.67;;;1.45;;
30010;SDS011;16851;53.564;8.112;2022-09-02T08:36:55;5.53;;;1.60;;
30010;SDS011;16851;53.564;8.112;2022-09-02T08:47:21;4.28;;;1.23;;
30010;SDS011;16851;53.564;8.112;2022-09-02T08:52:30;4.40;;;1.35;;
30010;SDS011;16851;53.564;8.112;2022-09-02T08:57:39;5.05;;;1.20;;
30010;SDS011;16851;53.564;8.112;2022-09-02T09:08:35;3.28;;;1.40;;
30010;SDS011;16851;53.564;8.112;2022-09-02T09:19:20;2.42;;;1.10;;
30010;SDS011;16851;53.564;8.112;2022-09-02T09:24:29;7.30;;;1.27;;
30010;SDS011;16851;53.564;8.112;2022-09-02T09:29:32;3.47;;;1.10;;
30010;SDS011;16851;53.564;8.112;2022-09-02T09:39:59;3.55;;;1.20;;
30010;SDS011;16851;53.564;8.112;2022-09-02T09:50:43;2.67;;;1.25;;
30010;SDS011;16851;53.564;8.112;2022-09-02T09:56:21;2.10;;;1.10;;
30010;SDS011;16851;53.564;8.112;2022-09-02T10:01:27;3.00;;;1.20;;
30010;SDS011;16851;53.564;8.112;2022-09-02T10:06:36;3.25;;;1.00;;
30010;SDS011;16851;53.564;8.112;2022-09-02T10:12:03;2.17;;;1.02;;
30010;SDS011;16851;53.564;8.112;2022-09-02T10:33:16;4.45;;;1.60;;
30010;SDS011;16851;53.564;8.112;2022-09-02T10:38:28;3.58;;;1.15;;
30010;SDS011;16851;53.564;8.112;2022-09-02T11:04:45;4.40;;;1.27;;
30010;SDS011;16851;53.564;8.112;2022-09-02T11:10:03;3.13;;;0.90;;
30010;SDS011;16851;53.564;8.112;2022-09-02T11:15:14;3.63;;;1.13;;
30010;SDS011;16851;53.564;8.112;2022-09-02T11:25:52;1.55;;;0.63;;
30010;SDS011;16851;53.564;8.112;2022-09-02T11:36:31;4.80;;;0.93;;
30010;SDS011;16851;53.564;8.112;2022-09-02T11:57:31;5.60;;;0.68;;
30010;SDS011;16851;53.564;8.112;2022-09-02T12:02:40;4.43;;;0.75;;
30010;SDS011;16851;53.564;8.112;2022-09-02T12:07:49;2.38;;;0.70;;
30010;SDS011;16851;53.564;8.112;2022-09-02T12:23:09;4.75;;;0.70;;
30010;SDS011;16851;53.564;8.112;2022-09-02T12:33:31;1.38;;;0.70;;
30010;SDS011;16851;53.564;8.112;2022-09-02T12:38:39;3.63;;;0.80;;
30010;SDS011;16851;53.564;8.112;2022-09-02T12:44:00;4.22;;;0.68;;
30010;SDS011;16851;53.564;8.112;2022-09-02T12:54:33;4.72;;;0.90;;
30010;SDS011;16851;53.564;8.112;2022-09-02T12:59:39;3.75;;;1.05;;
30010;SDS011;16851;53.564;8.112;2022-09-02T13:10:25;3.30;;;0.60;;
30010;SDS011;16851;53.564;8.112;2022-09-02T13:31:59;2.60;;;0.80;;
30010;SDS011;16851;53.564;8.112;2022-09-02T13:37:27;1.90;;;0.63;;
30010;SDS011;16851;53.564;8.112;2022-09-02T13:42:32;1.65;;;0.70;;
30010;SDS011;16851;53.564;8.112;2022-09-02T13:47:43;3.63;;;0.70;;
30010;SDS011;16851;53.564;8.112;2022-09-02T13:52:50;4.45;;;0.70;;
30010;SDS011;16851;53.564;8.112;2022-09-02T13:58:30;3.53;;;0.75;;
30010;SDS011;16851;53.564;8.112;2022-09-02T14:03:38;1.85;;;0.73;;
30010;SDS011;16851;53.564;8.112;2022-09-02T14:08:45;4.43;;;0.60;;
30010;SDS011;16851;53.564;8.112;2022-09-02T14:13:47;7.03;;;0.60;;
30010;SDS011;16851;53.564;8.112;2022-09-02T14:19:10;1.15;;;0.50;;
30010;SDS011;16851;53.564;8.112;2022-09-02T14:24:19;3.28;;;0.60;;
30010;SDS011;16851;53.564;8.112;2022-09-02T14:29:27;5.68;;;0.80;;
30010;SDS011;16851;53.564;8.112;2022-09-02T14:34:35;3.28;;;0.60;;
30010;SDS011;16851;53.564;8.112;2022-09-02T14:39:49;3.35;;;0.75;;
30010;SDS011;16851;53.564;8.112;2022-09-02T14:44:55;1.30;;;0.50;;
30010;SDS011;16851;53.564;8.112;2022-09-02T14:49:59;2.80;;;0.70;;
30010;SDS011;16851;53.564;8.112;2022-09-02T14:55:04;2.10;;;0.75;;
30010;SDS011;16851;53.564;8.112;2022-09-02T15:00:12;1.90;;;0.55;;
30010;SDS011;16851;53.564;8.112;2022-09-02T15:05:15;2.42;;;0.80;;
30010;SDS011;16851;53.564;8.112;2022-09-02T15:10:19;1.98;;;0.55;;
30010;SDS011;16851;53.564;8.112;2022-09-02T15:15:22;3.72;;;0.80;;
30010;SDS011;16851;53.564;8.112;2022-09-02T15:20:25;2.83;;;0.70;;
30010;SDS011;16851;53.564;8.112;2022-09-02T15:25:30;2.20;;;0.75;;
30010;SDS011;16851;53.564;8.112;2022-09-02T15:30:38;3.90;;;0.70;;
30010;SDS011;16851;53.564;8.112;2022-09-02T15:35:43;10.10;;;0.90;;
30010;SDS011;16851;53.564;8.112;2022-09-02T15:40:47;5.07;;;0.75;;
30010;SDS011;16851;53.564;8.112;2022-09-02T15:45:51;1.98;;;0.50;;
30010;SDS011;16851;53.564;8.112;2022-09-02T15:50:56;2.35;;;0.60;;
30010;SDS011;16851;53.564;8.112;2022-09-02T15:55:58;3.60;;;0.80;;
30010;SDS011;16851;53.564;8.112;2022-09-02T16:01:07;3.83;;;1.15;;
30010;SDS011;16851;53.564;8.112;2022-09-02T16:06:10;2.17;;;0.65;;
30010;SDS011;16851;53.564;8.112;2022-09-02T16:11:13;3.55;;;0.70;;
30010;SDS011;16851;53.564;8.112;2022-09-02T16:16:18;2.75;;;0.70;;
30010;SDS011;16851;53.564;8.112;2022-09-02T16:21:23;5.82;;;1.13;;
30010;SDS011;16851;53.564;8.112;2022-09-02T16:26:31;4.10;;;0.70;;
30010;SDS011;16851;53.564;8.112;2022-09-02T16:31:38;3.15;;;1.10;;
30010;SDS011;16851;53.564;8.112;2022-09-02T16:36:45;3.20;;;0.80;;
30010;SDS011;16851;53.564;8.112;2022-09-02T16:41:51;7.40;;;1.80;;
30010;SDS011;16851;53.564;8.112;2022-09-02T16:46:56;3.03;;;1.10;;
30010;SDS011;16851;53.564;8.112;2022-09-02T16:51:57;2.97;;;1.30;;
30010;SDS011;16851;53.564;8.112;2022-09-02T16:57:03;7.03;;;1.60;;
30010;SDS011;16851;53.564;8.112;2022-09-02T17:02:05;7.03;;;3.80;;
30010;SDS011;16851;53.564;8.112;2022-09-02T17:07:07;2.75;;;1.60;;
30010;SDS011;16851;53.564;8.112;2022-09-02T17:12:11;2.80;;;1.35;;
30010;SDS011;16851;53.564;8.112;2022-09-02T17:17:13;2.83;;;1.30;;
30010;SDS011;16851;53.564;8.112;2022-09-02T17:22:18;3.88;;;1.30;;
30010;SDS011;16851;53.564;8.112;2022-09-02T17:27:20;4.57;;;0.95;;
30010;SDS011;16851;53.564;8.112;2022-09-02T17:32:22;3.22;;;0.90;;
30010;SDS011;16851;53.564;8.112;2022-09-02T17:37:26;3.72;;;1.20;;
30010;SDS011;16851;53.564;8.112;2022-09-02T17:42:31;4.03;;;1.27;;
30010;SDS011;16851;53.564;8.112;2022-09-02T17:47:38;3.85;;;1.20;;
30010;SDS011;16851;53.564;8.112;2022-09-02T17:52:40;5.60;;;1.33;;
30010;SDS011;16851;53.564;8.112;2022-09-02T18:03:11;4.25;;;1.20;;
30010;SDS011;16851;53.564;8.112;2022-09-02T18:08:47;3.08;;;1.23;;
30010;SDS011;16851;53.564;8.112;2022-09-02T18:41:19;3.03;;;0.80;;
30010;SDS011;16851;53.564;8.112;2022-09-02T18:45:55;3.15;;;0.85;;
30010;SDS011;16851;53.564;8.112;2022-09-02T18:51:15;2.25;;;0.88;;
30010;SDS011;16851;53.564;8.112;2022-09-02T18:56:27;4.57;;;0.90;;
30010;SDS011;16851;53.564;8.112;2022-09-02T19:01:36;3.45;;;1.10;;
30010;SDS011;16851;53.564;8.112;2022-09-02T19:06:42;5.47;;;0.80;;
30010;SDS011;16851;53.564;8.112;2022-09-02T19:11:47;4.45;;;1.00;;
30010;SDS011;16851;53.564;8.112;2022-09-02T19:16:52;3.22;;;0.98;;
30010;SDS011;16851;53.564;8.112;2022-09-02T19:22:01;3.60;;;1.00;;
30010;SDS011;16851;53.564;8.112;2022-09-02T19:27:06;5.50;;;1.00;;
30010;SDS011;16851;53.564;8.112;2022-09-02T19:32:12;4.85;;;1.00;;
30010;SDS011;16851;53.564;8.112;2022-09-02T19:37:15;4.15;;;1.10;;
30010;SDS011;16851;53.564;8.112;2022-09-02T19:42:20;2.25;;;0.80;;
30010;SDS011;16851;53.564;8.112;2022-09-02T19:47:28;3.95;;;1.02;;
30010;SDS011;16851;53.564;8.112;2022-09-02T19:52:54;4.22;;;0.77;;
30010;SDS011;16851;53.564;8.112;2022-09-02T19:58:01;5.32;;;0.98;;
30010;SDS011;16851;53.564;8.112;2022-09-02T20:03:08;1.58;;;0.93;;
30010;SDS011;16851;53.564;8.112;2022-09-02T20:08:15;2.58;;;0.98;;
30010;SDS011;16851;53.564;8.112;2022-09-02T20:13:17;3.35;;;1.05;;
30010;SDS011;16851;53.564;8.112;2022-09-02T20:18:23;2.15;;;1.08;;
30010;SDS011;16851;53.564;8.112;2022-09-02T20:23:29;4.20;;;0.95;;
30010;SDS011;16851;53.564;8.112;2022-09-02T20:33:49;4.90;;;1.02;;
30010;SDS011;16851;53.564;8.112;2022-09-02T20:55:08;5.85;;;1.02;;
30010;SDS011;16851;53.564;8.112;2022-09-02T21:00:26;2.58;;;1.05;;
30010;SDS011;16851;53.564;8.112;2022-09-02T21:05:33;3.33;;;0.95;;
30010;SDS011;16851;53.564;8.112;2022-09-02T21:10:41;2.50;;;0.90;;
30010;SDS011;16851;53.564;8.112;2022-09-02T21:15:55;3.45;;;1.00;;
30010;SDS011;16851;53.564;8.112;2022-09-02T21:26:42;3.88;;;0.93;;
30010;SDS011;16851;53.564;8.112;2022-09-02T21:31:55;2.55;;;1.20;;
30010;SDS011;16851;53.564;8.112;2022-09-02T21:37:02;2.75;;;1.00;;
30010;SDS011;16851;53.564;8.112;2022-09-02T21:42:11;2.40;;;0.90;;
30010;SDS011;16851;53.564;8.112;2022-09-02T22:03:13;3.42;;;1.02;;
30010;SDS011;16851;53.564;8.112;2022-09-02T22:13:36;2.33;;;0.75;;
30010;SDS011;16851;53.564;8.112;2022-09-02T22:18:46;2.97;;;0.60;;
30010;SDS011;16851;53.564;8.112;2022-09-02T22:23:54;2.88;;;0.98;;
30010;SDS011;16851;53.564;8.112;2022-09-02T22:28:58;3.50;;;0.90;;
30010;SDS011;16851;53.564;8.112;2022-09-02T22:34:04;3.17;;;1.20;;
30010;SDS011;16851;53.564;8.112;2022-09-02T22:39:10;4.68;;;1.05;;
30010;SDS011;16851;53.564;8.112;2022-09-02T22:50:02;4.80;;;1.10;;
30010;SDS011;16851;53.564;8.112;2022-09-02T23:00:37;4.15;;;0.98;;
30010;SDS011;16851;53.564;8.112;2022-09-02T23:05:51;1.88;;;0.80;;
30010;SDS011;16851;53.564;8.112;2022-09-02T23:27:46;5.15;;;1.40;;
30010;SDS011;16851;53.564;8.112;2022-09-02T23:32:56;3.10;;;1.15;;
30010;SDS011;16851;53.564;8.112;2022-09-02T23:43:28;4.25;;;1.08;;
30010;SDS011;16851;53.564;8.112;2022-09-02T23:48:46;1.95;;;1.00;;
30010;SDS011;16851;53.564;8.112;2022-09-02T23:54:06;2.75;;;1.08;;
